createdAt,value
2022-10-03T00:01:22.767Z,10.00
2022-10-03T00:04:02.179Z,6.18
2022-10-03T00:06:45.036Z,5.57
2022-10-03T00:09:30.752Z,8.38
2022-10-03T00:12:10.425Z,10.85
2022-10-03T00:14:51.167Z,11.10
2022-10-03T00:17:26.242Z,11.45
2022-10-03T00:20:04.075Z,13.20
2022-10-03T00:22:42.514Z,11.43
2022-10-03T00:25:32.915Z,12.27
2022-10-03T00:28:13.809Z,12.13
2022-10-03T00:30:56.534Z,7.40
2022-10-03T00:33:32.068Z,12.80
2022-10-03T00:36:08.047Z,5.30
2022-10-03T00:39:02.726Z,5.07
2022-10-03T00:41:53.919Z,5.72
2022-10-03T00:44:52.368Z,5.95
2022-10-03T00:47:52.283Z,4.18
2022-10-03T00:50:39.260Z,7.57
2022-10-03T00:53:21.756Z,6.38
2022-10-03T00:56:11.618Z,3.78
2022-10-03T00:58:52.849Z,7.20
2022-10-03T01:01:35.726Z,8.75
2022-10-03T01:04:21.908Z,9.57
2022-10-03T01:07:00.167Z,9.77
2022-10-03T01:09:46.844Z,9.63
2022-10-03T01:12:28.625Z,10.00
2022-10-03T01:15:17.802Z,6.35
2022-10-03T01:18:00.246Z,7.00
2022-10-03T01:20:37.486Z,44.53
2022-10-03T01:23:46.118Z,33.78
2022-10-03T01:26:27.870Z,25.25
2022-10-03T01:29:20.690Z,14.30
2022-10-03T01:31:58.129Z,8.18
2022-10-03T01:34:32.293Z,7.72
2022-10-03T01:37:11.562Z,11.82
2022-10-03T01:39:48.635Z,9.55
2022-10-03T01:42:31.785Z,12.70
2022-10-03T01:45:13.198Z,9.88
2022-10-03T01:47:49.494Z,10.02
2022-10-03T01:50:25.723Z,9.25
2022-10-03T01:52:59.987Z,10.43
2022-10-03T01:55:37.468Z,8.95
2022-10-03T01:58:10.664Z,8.90
2022-10-03T02:00:46.178Z,8.68
2022-10-03T02:03:21.762Z,8.40
2022-10-03T02:05:59.243Z,8.73
2022-10-03T02:08:48.496Z,10.10
2022-10-03T02:11:31.231Z,9.23
2022-10-03T02:14:08.387Z,13.07
2022-10-03T02:16:45.104Z,9.15
2022-10-03T02:19:22.463Z,9.55
2022-10-03T02:21:53.051Z,10.90
2022-10-03T02:24:39.779Z,9.82
2022-10-03T02:27:52.742Z,10.98
2022-10-03T02:30:26.388Z,4.03
2022-10-03T02:33:37.137Z,6.00
2022-10-03T02:36:42.996Z,6.20
2022-10-03T02:39:38.337Z,3.95
2022-10-03T02:42:39.624Z,7.32
2022-10-03T02:45:40.343Z,9.82
2022-10-03T02:48:42.982Z,9.70
2022-10-03T02:51:59.078Z,11.88
2022-10-03T02:55:04.334Z,10.45
2022-10-03T02:58:02.660Z,5.20
2022-10-03T03:00:42.694Z,5.05
2022-10-03T03:03:33.035Z,4.93
2022-10-03T03:06:33.525Z,4.07
2022-10-03T03:09:30.653Z,7.65
2022-10-03T03:12:33.087Z,11.82
2022-10-03T03:15:21.595Z,9.95
2022-10-03T03:17:58.281Z,6.25
2022-10-03T03:20:41.270Z,4.68
2022-10-03T03:23:28.464Z,4.00
2022-10-03T03:26:23.978Z,8.02
2022-10-03T03:29:04.092Z,10.38
2022-10-03T03:31:39.706Z,11.07
2022-10-03T03:34:15.221Z,11.52
2022-10-03T03:36:51.706Z,10.15
2022-10-03T03:39:35.959Z,5.15
2022-10-03T03:42:22.381Z,6.93
2022-10-03T03:45:13.525Z,8.70
2022-10-03T03:47:56.271Z,18.75
2022-10-03T03:50:40.953Z,13.93
2022-10-03T03:53:29.692Z,10.88
2022-10-03T03:56:14.911Z,19.38
2022-10-03T03:58:54.975Z,31.98
2022-10-03T04:01:38.342Z,28.20
2022-10-03T04:04:22.939Z,10.95
2022-10-03T04:07:03.600Z,8.30
2022-10-03T04:10:00.064Z,52.97
2022-10-03T04:12:43.978Z,44.42
2022-10-03T04:15:31.562Z,16.77
2022-10-03T04:18:30.778Z,10.25
2022-10-03T04:21:20.022Z,18.73
2022-10-03T04:24:07.926Z,7.40
2022-10-03T04:26:52.522Z,4.88
2022-10-03T04:29:40.418Z,5.07
2022-10-03T04:32:21.432Z,6.60
2022-10-03T04:35:06.728Z,4.45
2022-10-03T04:37:43.358Z,3.75
2022-10-03T04:40:25.031Z,3.97
2022-10-03T04:43:05.963Z,3.60
2022-10-03T04:45:47.367Z,7.45
2022-10-03T04:48:23.718Z,6.47
2022-10-03T04:51:04.471Z,3.15
2022-10-03T04:53:46.217Z,3.42
2022-10-03T04:56:44.478Z,3.55
2022-10-03T04:59:44.541Z,5.70
2022-10-03T05:02:37.730Z,6.35
2022-10-03T05:05:41.461Z,9.93
2022-10-03T05:08:24.249Z,3.70
2022-10-03T05:11:15.695Z,4.20
2022-10-03T05:13:59.880Z,5.53
2022-10-03T05:16:38.465Z,3.40
2022-10-03T05:19:33.438Z,3.78
2022-10-03T05:22:05.833Z,4.95
2022-10-03T05:24:40.035Z,6.43
2022-10-03T05:27:20.930Z,6.20
2022-10-03T05:29:57.658Z,4.10
2022-10-03T05:32:36.854Z,6.38
2022-10-03T05:35:26.079Z,6.07
2022-10-03T05:38:25.240Z,6.15
2022-10-03T05:41:04.606Z,11.45
2022-10-03T05:43:58.410Z,4.60
2022-10-03T05:49:25.043Z,6.18
2022-10-03T05:52:08.900Z,3.75
2022-10-03T05:54:56.409Z,4.13
2022-10-03T05:58:02.145Z,4.90
2022-10-03T06:00:42.498Z,5.85
2022-10-03T06:03:44.987Z,5.28
2022-10-03T06:06:20.959Z,6.82
2022-10-03T06:09:24.778Z,4.97
2022-10-03T06:12:07.499Z,9.27
2022-10-03T06:15:13.638Z,6.28
2022-10-03T06:17:58.953Z,6.22
2022-10-03T06:21:05.001Z,4.88
2022-10-03T06:24:12.174Z,6.38
2022-10-03T06:27:12.318Z,8.48
2022-10-03T06:30:12.259Z,5.10
2022-10-03T06:33:43.369Z,7.30
2022-10-03T06:36:35.536Z,6.68
2022-10-03T06:39:42.764Z,4.18
2022-10-03T06:42:37.598Z,6.03
2022-10-03T06:45:59.932Z,7.45
2022-10-03T06:49:09.587Z,5.97
2022-10-03T06:51:54.131Z,8.48
2022-10-03T06:54:54.122Z,7.90
2022-10-03T06:57:43.539Z,8.45
2022-10-03T07:00:16.467Z,5.65
2022-10-03T07:03:16.955Z,8.00
2022-10-03T07:06:33.569Z,11.82
2022-10-03T07:09:39.287Z,8.68
2022-10-03T07:12:47.595Z,9.90
2022-10-03T07:16:05.157Z,7.28
2022-10-03T07:19:14.326Z,4.95
2022-10-03T07:22:09.216Z,8.68
2022-10-03T07:25:15.015Z,7.97
2022-10-03T07:28:01.071Z,9.70
2022-10-03T07:30:47.037Z,11.38
2022-10-03T07:33:56.761Z,14.63
2022-10-03T07:36:51.366Z,15.38
2022-10-03T07:39:56.008Z,14.65
2022-10-03T07:42:46.947Z,13.00
2022-10-03T07:45:34.470Z,20.85
2022-10-03T07:48:34.663Z,13.27
2022-10-03T07:51:24.571Z,12.38
2022-10-03T07:54:36.069Z,10.65
2022-10-03T07:57:31.239Z,12.32
2022-10-03T08:00:23.035Z,8.63
2022-10-03T08:03:27.984Z,13.43
2022-10-03T08:06:26.860Z,11.75
2022-10-03T08:09:33.479Z,13.55
2022-10-03T08:12:41.897Z,18.15
2022-10-03T08:15:27.066Z,22.38
2022-10-03T08:18:27.719Z,10.50
2022-10-03T08:20:57.123Z,13.50
2022-10-03T08:24:13.039Z,19.88
2022-10-03T08:27:18.732Z,15.27
2022-10-03T08:30:19.024Z,12.70
2022-10-03T08:33:08.937Z,12.45
2022-10-03T08:36:08.141Z,13.82
2022-10-03T08:38:56.910Z,12.10
2022-10-03T08:42:09.666Z,11.88
2022-10-03T08:45:08.366Z,13.95
2022-10-03T08:48:27.697Z,15.10
2022-10-03T08:51:18.572Z,13.32
2022-10-03T08:54:25.638Z,10.07
2022-10-03T08:57:18.607Z,11.40
2022-10-03T09:00:16.638Z,13.97
2022-10-03T09:03:33.967Z,12.65
2022-10-03T09:06:34.394Z,14.25
2022-10-03T09:09:23.884Z,12.73
2022-10-03T09:12:27.537Z,14.07
2022-10-03T09:15:17.287Z,10.07
2022-10-03T09:18:21.684Z,10.93
2022-10-03T09:21:36.419Z,13.52
2022-10-03T09:24:57.384Z,10.50
2022-10-03T09:28:13.239Z,11.27
2022-10-03T09:30:55.016Z,9.70
2022-10-03T09:34:04.896Z,8.10
2022-10-03T09:37:15.559Z,9.90
2022-10-03T09:40:17.268Z,7.95
2022-10-03T09:43:26.264Z,10.65
2022-10-03T09:46:27.101Z,10.23
2022-10-03T09:49:40.170Z,8.57
2022-10-03T09:52:37.568Z,5.18
2022-10-03T09:55:34.282Z,8.25
2022-10-03T09:58:31.667Z,7.10
2022-10-03T10:01:15.058Z,8.20
2022-10-03T10:04:53.768Z,6.72
2022-10-03T10:07:58.345Z,8.63
2022-10-03T10:11:10.737Z,7.88
2022-10-03T10:14:25.240Z,5.15
2022-10-03T10:17:38.400Z,6.45
2022-10-03T10:20:35.351Z,17.38
2022-10-03T10:23:44.412Z,7.85
2022-10-03T10:27:03.822Z,9.80
2022-10-03T10:29:53.762Z,6.68
2022-10-03T10:32:58.362Z,8.82
2022-10-03T10:35:52.982Z,7.28
2022-10-03T10:38:46.116Z,5.82
2022-10-03T10:41:47.361Z,3.00
2022-10-03T10:44:53.974Z,7.68
2022-10-03T10:48:10.189Z,9.98
2022-10-03T10:51:16.793Z,6.82
2022-10-03T10:54:36.627Z,5.47
2022-10-03T10:57:26.974Z,10.48
2022-10-03T11:00:22.676Z,4.43
2022-10-03T11:03:37.761Z,7.85
2022-10-03T11:06:44.615Z,5.95
2022-10-03T11:09:58.332Z,5.35
2022-10-03T11:13:02.143Z,3.90
2022-10-03T11:16:23.083Z,4.90
2022-10-03T11:19:27.011Z,3.35
2022-10-03T11:22:43.590Z,4.13
2022-10-03T11:25:51.855Z,5.20
2022-10-03T11:29:08.521Z,5.10
2022-10-03T11:32:09.803Z,3.47
2022-10-03T11:35:15.642Z,5.68
2022-10-03T11:37:48.089Z,2.97
2022-10-03T11:40:37.161Z,2.72
2022-10-03T11:43:34.166Z,2.42
2022-10-03T11:46:20.519Z,4.28
2022-10-03T11:48:55.626Z,3.28
2022-10-03T11:51:39.189Z,3.17
2022-10-03T11:54:31.090Z,2.30
2022-10-03T11:57:09.194Z,4.35
2022-10-03T11:59:55.609Z,4.45
2022-10-03T12:03:04.565Z,1.58
2022-10-03T12:05:47.956Z,2.78
2022-10-03T12:08:50.587Z,3.20
2022-10-03T12:11:24.404Z,4.88
2022-10-03T12:14:11.215Z,2.83
2022-10-03T12:17:03.078Z,3.72
2022-10-03T12:19:37.520Z,2.08
2022-10-03T12:22:18.726Z,1.80
2022-10-03T12:24:49.064Z,2.90
2022-10-03T12:27:30.153Z,3.63
2022-10-03T12:30:00.954Z,4.45
2022-10-03T12:32:37.430Z,4.00
2022-10-03T12:35:30.306Z,3.10
2022-10-03T12:38:24.523Z,3.58
2022-10-03T12:41:04.061Z,3.83
2022-10-03T12:43:49.125Z,5.15
2022-10-03T12:46:26.522Z,3.95
2022-10-03T12:49:03.071Z,2.72
2022-10-03T12:51:51.047Z,2.05
2022-10-03T12:54:37.644Z,6.10
2022-10-03T12:57:36.699Z,3.35
2022-10-03T13:00:07.787Z,7.45
2022-10-03T13:02:40.907Z,1.80
2022-10-03T13:05:37.771Z,5.28
2022-10-03T13:08:19.623Z,3.90
2022-10-03T13:10:54.785Z,2.67
2022-10-03T13:13:30.185Z,2.70
2022-10-03T13:16:14.960Z,4.60
2022-10-03T13:18:55.141Z,2.95
2022-10-03T13:21:45.922Z,4.65
2022-10-03T13:24:32.078Z,4.53
2022-10-03T13:27:29.110Z,4.20
2022-10-03T13:30:06.309Z,3.33
2022-10-03T13:32:37.781Z,3.35
2022-10-03T13:35:51.984Z,5.78
2022-10-03T13:38:46.202Z,4.15
2022-10-03T13:41:25.366Z,3.72
2022-10-03T13:44:00.448Z,3.42
2022-10-03T13:46:36.859Z,2.55
2022-10-03T13:49:12.612Z,2.75
2022-10-03T13:51:50.248Z,4.53
2022-10-03T13:54:23.870Z,5.22
2022-10-03T13:56:57.869Z,3.95
2022-10-03T13:59:41.555Z,3.58
2022-10-03T14:02:29.648Z,3.08
2022-10-03T14:05:18.543Z,2.88
2022-10-03T14:07:56.132Z,3.08
2022-10-03T14:10:50.323Z,5.40
2022-10-03T14:13:28.512Z,2.83
2022-10-03T14:16:12.819Z,6.30
2022-10-03T14:18:49.146Z,4.00
2022-10-03T14:21:50.130Z,3.47
2022-10-03T14:24:36.950Z,3.03
2022-10-03T14:27:13.996Z,2.85
2022-10-03T14:29:56.807Z,12.60
2022-10-03T14:32:46.942Z,35.30
2022-10-03T14:35:27.994Z,19.38
2022-10-03T14:38:04.071Z,41.20
2022-10-03T14:40:43.754Z,44.10
2022-10-03T14:43:35.038Z,27.17
2022-10-03T14:46:06.576Z,13.40
2022-10-03T14:48:41.175Z,4.75
2022-10-03T14:51:16.334Z,4.45
2022-10-03T14:53:52.376Z,3.50
2022-10-03T14:56:23.572Z,15.32
2022-10-03T14:58:54.484Z,9.77
2022-10-03T15:01:25.240Z,4.35
2022-10-03T15:04:02.964Z,13.18
2022-10-03T15:06:54.124Z,8.85
2022-10-03T15:09:33.600Z,10.45
2022-10-03T15:12:09.599Z,6.30
2022-10-03T15:14:42.124Z,6.53
2022-10-03T15:17:20.300Z,6.93
2022-10-03T15:19:54.881Z,4.63
2022-10-03T15:22:30.027Z,3.67
2022-10-03T15:25:03.896Z,3.28
2022-10-03T15:27:32.886Z,3.72
2022-10-03T15:30:03.375Z,3.90
2022-10-03T15:32:37.364Z,4.70
2022-10-03T15:35:08.203Z,5.22
2022-10-03T15:37:47.669Z,3.20
2022-10-03T15:40:24.228Z,5.82
2022-10-03T15:43:03.025Z,2.92
2022-10-03T15:45:36.111Z,4.70
2022-10-03T15:48:11.661Z,7.50
2022-10-03T15:50:43.712Z,4.50
2022-10-03T15:53:35.533Z,4.85
2022-10-03T15:56:15.190Z,3.92
2022-10-03T15:58:48.760Z,5.15
2022-10-03T16:01:22.857Z,5.10
2022-10-03T16:03:54.963Z,5.80
2022-10-03T16:06:29.341Z,3.85
2022-10-03T16:09:03.798Z,4.63
2022-10-03T16:11:42.034Z,6.35
2022-10-03T16:14:19.607Z,8.15
2022-10-03T16:16:53.244Z,4.28
2022-10-03T16:19:30.612Z,8.13
2022-10-03T16:22:13.903Z,7.03
2022-10-03T16:24:47.873Z,4.05
2022-10-03T16:27:19.292Z,4.88
2022-10-03T16:29:55.288Z,3.88
2022-10-03T16:32:26.203Z,7.72
2022-10-03T16:34:59.489Z,3.20
2022-10-03T16:40:02.672Z,4.25
2022-10-03T16:42:40.790Z,4.15
2022-10-03T16:45:22.210Z,4.53
2022-10-03T16:48:12.288Z,3.53
2022-10-03T16:50:46.354Z,5.50
2022-10-03T16:53:18.097Z,6.32
2022-10-03T16:55:49.817Z,4.85
2022-10-03T16:58:24.424Z,4.13
2022-10-03T17:01:22.130Z,5.93
2022-10-03T17:03:49.464Z,6.53
2022-10-03T17:06:23.374Z,7.25
2022-10-03T17:08:56.144Z,8.43
2022-10-03T17:11:27.511Z,5.38
2022-10-03T17:13:57.647Z,6.35
2022-10-03T17:16:37.508Z,6.40
2022-10-03T17:19:30.571Z,4.78
2022-10-03T17:22:03.882Z,8.63
2022-10-03T17:27:14.731Z,6.25
2022-10-03T17:29:49.517Z,5.40
2022-10-03T17:32:23.356Z,7.75
2022-10-03T17:34:59.686Z,7.10
2022-10-03T17:37:56.922Z,11.63
2022-10-03T17:40:46.836Z,8.35
2022-10-03T17:43:22.513Z,8.98
2022-10-03T17:46:03.588Z,9.00
2022-10-03T17:48:38.927Z,10.10
2022-10-03T17:51:29.749Z,7.10
2022-10-03T17:53:59.619Z,7.63
2022-10-03T17:56:32.806Z,7.35
2022-10-03T17:59:05.850Z,9.63
2022-10-03T18:01:40.798Z,8.55
2022-10-03T18:04:17.876Z,7.80
2022-10-03T18:06:52.657Z,6.40
2022-10-03T18:09:31.006Z,6.05
2022-10-03T18:12:20.489Z,7.28
2022-10-03T18:15:08.544Z,7.05
2022-10-03T18:17:47.331Z,9.98
2022-10-03T18:20:30.101Z,7.65
2022-10-03T18:23:02.313Z,9.80
2022-10-03T18:26:14.997Z,15.40
2022-10-03T18:28:45.669Z,9.98
2022-10-03T18:31:18.128Z,17.65
2022-10-03T18:33:51.121Z,10.53
2022-10-03T18:36:23.588Z,15.52
2022-10-03T18:38:55.781Z,10.50
2022-10-03T18:41:25.302Z,9.95
2022-10-03T18:43:59.772Z,8.60
2022-10-03T18:46:33.393Z,7.97
2022-10-03T18:49:31.825Z,5.70
2022-10-03T18:52:00.382Z,6.45
2022-10-03T18:54:39.715Z,4.10
2022-10-03T18:57:14.778Z,5.28
2022-10-03T18:59:52.873Z,7.32
2022-10-03T19:02:27.703Z,8.45
2022-10-03T19:05:00.772Z,6.32
2022-10-03T19:07:32.302Z,9.05
2022-10-03T19:10:36.060Z,8.00
2022-10-03T19:13:17.359Z,12.07
2022-10-03T19:16:19.839Z,10.70
2022-10-03T19:18:58.963Z,9.35
2022-10-03T19:21:28.227Z,7.78
2022-10-03T19:24:05.348Z,9.40
2022-10-03T19:26:36.335Z,8.90
2022-10-03T19:29:07.866Z,6.25
2022-10-03T19:31:41.673Z,8.15
2022-10-03T19:34:23.242Z,7.90
2022-10-03T19:36:52.933Z,6.70
2022-10-03T19:39:23.016Z,5.22
2022-10-03T19:41:55.905Z,6.13
2022-10-03T19:44:27.570Z,8.95
2022-10-03T19:47:11.683Z,6.35
2022-10-03T19:49:51.617Z,9.77
2022-10-03T19:52:25.347Z,13.43
2022-10-03T19:54:56.532Z,5.72
2022-10-03T19:57:30.701Z,9.05
2022-10-03T20:00:02.805Z,7.90
2022-10-03T20:02:33.390Z,7.43
2022-10-03T20:05:02.415Z,10.55
2022-10-03T20:07:45.581Z,6.82
2022-10-03T20:10:35.149Z,8.68
2022-10-03T20:13:04.487Z,6.15
2022-10-03T20:15:41.940Z,6.28
2022-10-03T20:18:23.274Z,7.95
2022-10-03T20:20:54.459Z,24.27
2022-10-03T20:23:25.044Z,10.68
2022-10-03T20:26:01.354Z,6.85
2022-10-03T20:28:42.388Z,7.40
2022-10-03T20:31:11.424Z,6.22
2022-10-03T20:33:41.138Z,5.93
2022-10-03T20:36:18.943Z,5.65
2022-10-03T20:39:06.301Z,6.65
2022-10-03T20:41:44.838Z,6.50
2022-10-03T20:44:19.973Z,5.55
2022-10-03T20:46:51.130Z,5.03
2022-10-03T20:49:31.768Z,6.25
2022-10-03T20:52:06.299Z,4.18
2022-10-03T20:54:48.472Z,8.05
2022-10-03T20:57:20.493Z,6.70
2022-10-03T20:59:50.561Z,6.63
2022-10-03T21:02:29.250Z,10.43
2022-10-03T21:05:03.640Z,7.55
2022-10-03T21:07:38.813Z,9.68
2022-10-03T21:10:18.622Z,8.75
2022-10-03T21:12:49.948Z,9.30
2022-10-03T21:15:29.715Z,7.65
2022-10-03T21:17:59.256Z,6.38
2022-10-03T21:20:36.406Z,4.45
2022-10-03T21:23:13.485Z,5.70
2022-10-03T21:25:43.103Z,5.13
2022-10-03T21:28:25.244Z,6.70
2022-10-03T21:31:10.730Z,5.15
2022-10-03T21:33:48.099Z,4.65
2022-10-03T21:36:26.472Z,4.88
2022-10-03T21:39:02.668Z,5.90
2022-10-03T21:41:41.706Z,6.85
2022-10-03T21:44:28.291Z,5.57
2022-10-03T21:47:04.919Z,5.28
2022-10-03T21:49:47.841Z,4.28
2022-10-03T21:52:30.694Z,8.75
2022-10-03T21:55:11.444Z,4.25
2022-10-03T21:57:50.192Z,12.85
2022-10-03T22:00:20.157Z,4.72
2022-10-03T22:03:02.544Z,4.03
2022-10-03T22:05:43.227Z,5.38
2022-10-03T22:08:23.284Z,5.55
2022-10-03T22:11:04.763Z,5.32
2022-10-03T22:13:37.594Z,4.57
2022-10-03T22:16:12.435Z,3.63
2022-10-03T22:19:16.055Z,4.00
2022-10-03T22:21:52.514Z,6.78
2022-10-03T22:24:34.475Z,6.70
2022-10-03T22:27:09.778Z,6.07
2022-10-03T22:29:48.075Z,9.02
2022-10-03T22:32:23.594Z,8.25
2022-10-03T22:35:03.070Z,7.07
2022-10-03T22:37:31.443Z,7.13
2022-10-03T22:40:02.647Z,8.63
2022-10-03T22:42:35.319Z,6.07
2022-10-03T22:45:04.645Z,10.75
2022-10-03T22:47:34.819Z,4.88
2022-10-03T22:50:08.335Z,5.78
2022-10-03T22:52:39.571Z,6.95
2022-10-03T22:55:13.566Z,5.28
2022-10-03T22:57:44.868Z,5.65
2022-10-03T23:00:16.688Z,7.13
2022-10-03T23:02:49.859Z,7.80
2022-10-03T23:05:27.008Z,8.07
2022-10-03T23:08:04.387Z,8.10
2022-10-03T23:10:43.176Z,6.32
2022-10-03T23:13:18.530Z,9.38
2022-10-03T23:15:51.327Z,6.45
2022-10-03T23:18:49.981Z,4.78
2022-10-03T23:21:18.296Z,7.93
2022-10-03T23:24:04.443Z,7.47
2022-10-03T23:26:59.566Z,7.45
2022-10-03T23:29:27.655Z,8.30
2022-10-03T23:31:58.869Z,6.53
2022-10-03T23:34:46.494Z,6.30
2022-10-03T23:37:45.731Z,7.05
2022-10-03T23:40:36.723Z,6.88
2022-10-03T23:43:23.081Z,7.30
2022-10-03T23:45:53.715Z,5.32
2022-10-03T23:48:24.940Z,5.78
2022-10-03T23:50:58.254Z,5.70
2022-10-03T23:53:33.705Z,7.35
2022-10-03T23:56:04.651Z,8.73
2022-10-03T23:58:37.315Z,6.35
